Accueil
METAR-TAF:

METAR-TAF

Aéroports :

Aéroport d'Agadir-Al Massira

Agadir, Maroc

latitude: 30-20N, longitude: 009-24W, altitude: 74 m

Observation

Le bulletin a été fait il y a 27 minutes, à 01:00 UTC
Vent calme
Température 12°C
Humidité 94%
Pression 1018 hPa
Visibilité 10 km ou plus
pas de nuages en-dessous de 1500 mètres et pas de cumulonimbus.

METAR: GMAD 040100Z 00000KT CAVOK 12/11 Q1018 NOSIG

Heure: 02:27 (01:27 UTC)

Prévision

Le bulletin a été fait il y a 2 heures et 27 minutes, à 23:00 UTC
Prévision valable du 04 à 00 UTC au 05 à 06 UTC
Vent 5 kt de est/nord-est
Visibilité: 8000 m
Evoluant progressivement
du 04 à 12 UTC au 04 à 14 UTC
Vent 12 kt de ouest
Evoluant progressivement
du 04 à 19 UTC au 04 à 22 UTC
Vent 6 kt de est

TAF: GMAD 032300Z 0400/0506 06005KT 8000 NSC BECMG 0412/0414 28012KT BECMG 0419/0422 08006KT

Observations et prévisions météorologiques de plus de 4000 aéroports (messages METAR et TAF).

Les stations disponibles sont représentées par des disques jaunes et rouges sur la carte.

Passer la souris dessus pour voir le nom de la station.

Cliquer dessus pour voir les observations et prévisions météorologiques.

Pour changer de carte: cliquez sur les boutons verts avec une croix noire pour zoomer, sur le bouton vert avec un tiret pour effectuer un zoom arrière, ou sur les flèches vertes pour les cartes adjacentes.


METAR-TAF: